createdAt,value
2023-01-30T00:00:52.794Z,22.90
2023-01-30T00:01:52.806Z,23.50
2023-01-30T00:02:52.762Z,24.30
2023-01-30T00:03:52.762Z,27.30
2023-01-30T00:04:52.781Z,26.60
2023-01-30T00:05:52.746Z,26.50
2023-01-30T00:06:52.731Z,26.60
2023-01-30T00:07:52.714Z,26.90
2023-01-30T00:08:52.705Z,27.40
2023-01-30T00:09:52.702Z,26.00
2023-01-30T00:10:52.689Z,27.00
2023-01-30T00:11:52.675Z,23.10
2023-01-30T00:12:52.671Z,22.60
2023-01-30T00:14:52.657Z,24.00
2023-01-30T00:15:52.637Z,23.70
2023-01-30T00:16:52.639Z,23.30
2023-01-30T00:17:52.617Z,23.20
2023-01-30T00:18:52.609Z,23.70
2023-01-30T00:19:52.598Z,22.90
2023-01-30T00:20:52.593Z,23.60
2023-01-30T00:21:52.578Z,26.20
2023-01-30T00:23:00.854Z,25.80
2023-01-30T00:23:52.561Z,25.40
2023-01-30T00:24:52.682Z,26.10
2023-01-30T00:25:52.655Z,26.70
2023-01-30T00:26:52.587Z,26.30
2023-01-30T00:27:52.519Z,26.60
2023-01-30T00:28:52.516Z,25.80
2023-01-30T00:30:02.484Z,23.10
2023-01-30T00:30:52.539Z,24.00
2023-01-30T00:31:52.570Z,24.30
2023-01-30T00:32:52.479Z,24.80
2023-01-30T00:33:52.471Z,23.30
2023-01-30T00:34:52.459Z,23.10
2023-01-30T00:35:52.445Z,23.60
2023-01-30T00:37:06.424Z,23.90
2023-01-30T00:37:52.429Z,23.40
2023-01-30T00:38:52.425Z,24.40
2023-01-30T00:39:52.410Z,25.70
2023-01-30T00:40:52.432Z,27.50
2023-01-30T00:41:52.391Z,27.70
2023-01-30T00:42:52.382Z,27.80
2023-01-30T00:43:52.374Z,27.90
2023-01-30T00:44:52.401Z,27.20
2023-01-30T00:45:52.451Z,28.30
2023-01-30T00:46:52.342Z,27.30
2023-01-30T00:47:52.340Z,27.40
2023-01-30T00:48:52.327Z,24.10
2023-01-30T00:49:52.319Z,25.00
2023-01-30T00:50:52.311Z,24.50
2023-01-30T00:51:52.309Z,24.00
2023-01-30T00:52:52.310Z,25.20
2023-01-30T00:53:52.297Z,25.10
2023-01-30T00:54:52.284Z,24.00
2023-01-30T00:55:52.262Z,24.30
2023-01-30T00:56:52.256Z,22.90
2023-01-30T00:57:52.238Z,24.70
2023-01-30T00:58:52.237Z,25.00
2023-01-30T00:59:52.573Z,26.90
2023-01-30T01:00:52.221Z,27.90
2023-01-30T01:01:52.238Z,28.00
2023-01-30T01:02:52.249Z,27.60
2023-01-30T01:03:52.189Z,27.40
2023-01-30T01:04:52.176Z,27.10
2023-01-30T01:05:52.167Z,27.60
2023-01-30T01:06:52.158Z,27.40
2023-01-30T01:07:52.145Z,24.20
2023-01-30T01:08:52.138Z,24.50
2023-01-30T01:09:52.135Z,24.10
2023-01-30T01:10:52.120Z,24.50
2023-01-30T01:11:52.126Z,24.40
2023-01-30T01:12:52.102Z,24.90
2023-01-30T01:13:52.091Z,25.30
2023-01-30T01:14:52.081Z,24.70
2023-01-30T01:15:52.083Z,26.70
2023-01-30T01:16:52.067Z,27.90
2023-01-30T01:17:52.053Z,29.20
2023-01-30T01:18:52.043Z,27.80
2023-01-30T01:19:52.038Z,28.00
2023-01-30T01:20:52.027Z,27.90
2023-01-30T01:21:52.017Z,29.60
2023-01-30T01:22:52.005Z,28.20
2023-01-30T01:23:51.999Z,27.90
2023-01-30T01:24:51.987Z,24.80
2023-01-30T01:25:51.978Z,25.20
2023-01-30T01:26:51.970Z,25.80
2023-01-30T01:27:51.960Z,25.30
2023-01-30T01:28:51.951Z,25.60
2023-01-30T01:29:51.942Z,23.50
2023-01-30T01:30:51.989Z,26.20
2023-01-30T01:31:51.962Z,25.30
2023-01-30T01:32:51.920Z,27.40
2023-01-30T01:33:51.922Z,28.10
2023-01-30T01:34:51.895Z,28.00
2023-01-30T01:35:51.887Z,27.00
2023-01-30T01:36:54.421Z,27.30
2023-01-30T01:37:51.865Z,28.40
2023-01-30T01:38:51.862Z,29.80
2023-01-30T01:39:51.849Z,28.50
2023-01-30T01:40:51.842Z,29.30
2023-01-30T01:41:51.831Z,24.90
2023-01-30T01:42:51.828Z,24.60
2023-01-30T01:43:51.812Z,27.10
2023-01-30T01:44:51.805Z,27.50
2023-01-30T01:45:51.888Z,26.40
2023-01-30T01:46:51.785Z,25.90
2023-01-30T01:47:51.775Z,26.60
2023-01-30T01:48:51.768Z,25.50
2023-01-30T01:49:51.759Z,25.00
2023-01-30T01:50:51.751Z,25.20
2023-01-30T01:51:51.736Z,27.10
2023-01-30T01:52:52.215Z,28.30
2023-01-30T01:53:51.719Z,27.90
2023-01-30T01:54:51.723Z,28.50
2023-01-30T01:55:51.700Z,27.70
2023-01-30T01:56:51.695Z,28.20
2023-01-30T01:57:51.688Z,28.50
2023-01-30T01:58:51.673Z,27.90
2023-01-30T01:59:51.662Z,27.80
2023-01-30T02:00:51.662Z,27.10
2023-01-30T02:01:51.642Z,26.90
2023-01-30T02:02:51.637Z,25.80
2023-01-30T02:03:51.630Z,24.20
2023-01-30T02:04:51.617Z,24.10
2023-01-30T02:05:51.613Z,23.80
2023-01-30T02:06:51.603Z,24.20
2023-01-30T02:07:51.604Z,24.70
2023-01-30T02:08:51.581Z,23.60
2023-01-30T02:09:51.577Z,23.90
2023-01-30T02:10:51.572Z,26.90
2023-01-30T02:11:51.568Z,26.90
2023-01-30T02:12:51.545Z,26.20
2023-01-30T02:13:51.532Z,26.60
2023-01-30T02:14:51.532Z,27.40
2023-01-30T02:15:51.524Z,27.40
2023-01-30T02:16:51.513Z,27.90
2023-01-30T02:17:51.550Z,27.40
2023-01-30T02:18:51.497Z,26.10
2023-01-30T02:19:51.481Z,23.90
2023-01-30T02:20:51.471Z,24.20
2023-01-30T02:21:51.462Z,25.00
2023-01-30T02:22:51.452Z,24.70
2023-01-30T02:23:51.450Z,24.60
2023-01-30T02:24:51.439Z,24.60
2023-01-30T02:25:51.429Z,24.70
2023-01-30T02:26:51.413Z,25.00
2023-01-30T02:27:51.410Z,25.10
2023-01-30T02:28:51.397Z,27.20
2023-01-30T02:29:51.387Z,27.40
2023-01-30T02:30:51.411Z,27.40
2023-01-30T02:31:51.368Z,27.70
2023-01-30T02:32:51.362Z,27.90
2023-01-30T02:33:51.358Z,27.20
2023-01-30T02:34:51.347Z,27.80
2023-01-30T02:35:51.335Z,25.20
2023-01-30T02:36:51.324Z,25.40
2023-01-30T02:37:51.317Z,24.00
2023-01-30T02:38:51.303Z,24.50
2023-01-30T02:39:51.296Z,24.90
2023-01-30T02:40:51.286Z,24.60
2023-01-30T02:41:51.277Z,24.60
2023-01-30T02:42:51.295Z,25.00
2023-01-30T02:43:51.263Z,25.10
2023-01-30T02:44:51.251Z,23.10
2023-01-30T02:45:51.260Z,23.20
2023-01-30T02:46:51.238Z,26.50
2023-01-30T02:47:51.224Z,27.50
2023-01-30T02:48:51.213Z,27.00
2023-01-30T02:49:51.202Z,26.20
2023-01-30T02:50:51.191Z,27.10
2023-01-30T02:51:51.188Z,27.00
2023-01-30T02:52:51.180Z,26.20
2023-01-30T02:53:51.172Z,26.60
2023-01-30T02:54:51.155Z,25.60
2023-01-30T02:55:51.148Z,23.30
2023-01-30T02:56:51.142Z,23.70
2023-01-30T02:57:51.132Z,24.40
2023-01-30T02:58:51.124Z,24.20
2023-01-30T02:59:51.113Z,23.70
2023-01-30T03:00:51.100Z,24.50
2023-01-30T03:01:51.103Z,24.40
2023-01-30T03:02:51.194Z,22.90
2023-01-30T03:03:51.075Z,24.60
2023-01-30T03:04:51.069Z,25.20
2023-01-30T03:05:51.060Z,26.80
2023-01-30T03:06:51.049Z,26.70
2023-01-30T03:07:51.038Z,26.60
2023-01-30T03:08:51.029Z,26.50
2023-01-30T03:09:51.020Z,26.70
2023-01-30T03:10:51.010Z,25.70
2023-01-30T03:11:51.002Z,26.50
2023-01-30T03:12:50.993Z,22.00
2023-01-30T03:13:50.986Z,23.00
2023-01-30T03:14:50.972Z,23.70
2023-01-30T03:15:51.008Z,23.80
2023-01-30T03:16:50.959Z,23.40
2023-01-30T03:17:50.948Z,24.90
2023-01-30T03:18:50.944Z,24.00
2023-01-30T03:19:50.928Z,24.10
2023-01-30T03:20:50.917Z,23.90
2023-01-30T03:21:50.920Z,23.00
2023-01-30T03:22:50.916Z,23.20
2023-01-30T03:23:50.899Z,26.30
2023-01-30T03:24:50.897Z,26.70
2023-01-30T03:25:50.888Z,27.10
2023-01-30T03:26:50.866Z,26.70
2023-01-30T03:27:50.870Z,25.70
2023-01-30T03:28:50.854Z,26.40
2023-01-30T03:29:50.847Z,26.40
2023-01-30T03:30:51.025Z,23.90
2023-01-30T03:31:50.828Z,23.50
2023-01-30T03:32:50.815Z,24.00
2023-01-30T03:33:50.807Z,23.60
2023-01-30T03:34:50.790Z,24.70
2023-01-30T03:35:50.787Z,23.60
2023-01-30T03:36:50.775Z,24.20
2023-01-30T03:37:50.768Z,23.70
2023-01-30T03:38:50.758Z,23.60
2023-01-30T03:39:50.752Z,23.10
2023-01-30T03:40:50.740Z,25.70
2023-01-30T03:41:50.730Z,25.20
2023-01-30T03:42:50.727Z,24.90
2023-01-30T03:43:50.711Z,25.80
2023-01-30T03:44:50.741Z,26.30
2023-01-30T03:45:50.750Z,27.20
2023-01-30T03:46:50.687Z,26.30
2023-01-30T03:47:50.682Z,25.50
2023-01-30T03:48:50.673Z,23.10
2023-01-30T03:49:50.667Z,23.40
2023-01-30T03:50:50.650Z,23.50
2023-01-30T03:51:50.639Z,23.70
2023-01-30T03:52:50.627Z,23.80
2023-01-30T03:53:50.620Z,24.70
2023-01-30T03:54:50.612Z,24.10
2023-01-30T03:55:50.603Z,23.70
2023-01-30T03:56:50.596Z,23.10
2023-01-30T03:57:50.589Z,27.20
2023-01-30T03:58:50.584Z,27.20
2023-01-30T03:59:50.570Z,27.20
2023-01-30T04:00:50.716Z,26.70
2023-01-30T04:01:50.553Z,26.60
2023-01-30T04:02:50.541Z,27.60
2023-01-30T04:03:50.538Z,27.10
2023-01-30T04:04:50.543Z,24.90
2023-01-30T04:05:50.514Z,23.60
2023-01-30T04:06:50.507Z,24.70
2023-01-30T04:07:50.495Z,25.60
2023-01-30T04:08:50.493Z,27.00
2023-01-30T04:09:50.475Z,26.20
2023-01-30T04:10:50.470Z,26.30
2023-01-30T04:11:50.478Z,27.90
2023-01-30T04:12:50.457Z,28.30
2023-01-30T04:13:50.442Z,27.40
2023-01-30T04:14:50.433Z,27.10
2023-01-30T04:15:50.423Z,28.20
2023-01-30T04:16:50.499Z,27.40
2023-01-30T04:17:50.409Z,27.70
2023-01-30T04:18:50.418Z,25.00
2023-01-30T04:19:50.398Z,24.50
2023-01-30T04:20:50.378Z,24.60
2023-01-30T04:21:50.373Z,25.50
2023-01-30T04:22:50.363Z,25.50
2023-01-30T04:23:50.353Z,25.60
2023-01-30T04:24:50.341Z,25.80
2023-01-30T04:25:50.344Z,28.10
2023-01-30T04:26:50.329Z,28.20
2023-01-30T04:27:50.315Z,28.00
2023-01-30T04:28:50.307Z,28.70
2023-01-30T04:29:50.295Z,29.00
2023-01-30T04:30:50.328Z,29.20
2023-01-30T04:31:50.283Z,29.00
2023-01-30T04:32:50.288Z,29.10
2023-01-30T04:33:50.298Z,28.40
2023-01-30T04:34:50.259Z,25.30
2023-01-30T04:35:50.245Z,24.90
2023-01-30T04:36:50.232Z,25.40
2023-01-30T04:37:50.222Z,25.70
2023-01-30T04:38:50.213Z,25.60
2023-01-30T04:39:50.238Z,24.90
2023-01-30T04:40:50.198Z,26.20
2023-01-30T04:41:50.188Z,27.30
2023-01-30T04:42:50.180Z,28.30
2023-01-30T04:43:50.181Z,29.20
2023-01-30T04:44:50.163Z,28.30
2023-01-30T04:45:50.163Z,29.70
2023-01-30T04:46:50.147Z,28.70
2023-01-30T04:47:50.223Z,29.10
2023-01-30T04:48:50.148Z,28.60
2023-01-30T04:49:50.115Z,28.90
2023-01-30T04:50:50.115Z,28.90
2023-01-30T04:51:50.103Z,26.00
2023-01-30T04:52:50.088Z,24.90
2023-01-30T04:53:50.083Z,26.10
2023-01-30T04:54:50.080Z,27.20
2023-01-30T04:55:50.065Z,26.90
2023-01-30T04:56:50.059Z,27.40
2023-01-30T04:57:50.049Z,27.50
2023-01-30T04:58:50.037Z,26.90
2023-01-30T04:59:50.035Z,27.30
2023-01-30T05:00:50.154Z,26.50
2023-01-30T05:01:50.114Z,26.80
2023-01-30T05:02:49.999Z,27.60
2023-01-30T05:03:49.997Z,28.20
2023-01-30T05:04:50.003Z,28.60
2023-01-30T05:05:49.979Z,28.90
2023-01-30T05:06:49.966Z,29.00
2023-01-30T05:07:49.957Z,28.30
2023-01-30T05:08:49.956Z,28.90
2023-01-30T05:09:49.938Z,28.90
2023-01-30T05:10:49.929Z,28.60
2023-01-30T05:11:49.928Z,29.90
2023-01-30T05:12:49.931Z,29.20
2023-01-30T05:13:49.906Z,29.50
2023-01-30T05:14:49.913Z,25.00
2023-01-30T05:15:49.887Z,25.30
2023-01-30T05:16:49.916Z,25.70
2023-01-30T05:17:49.872Z,25.70
2023-01-30T05:18:49.859Z,26.60
2023-01-30T05:19:49.852Z,27.00
2023-01-30T05:20:49.859Z,26.60
2023-01-30T05:21:49.836Z,26.60
2023-01-30T05:22:49.819Z,29.00
2023-01-30T05:23:49.819Z,28.90
2023-01-30T05:24:49.807Z,28.50
2023-01-30T05:25:49.796Z,29.10
2023-01-30T05:26:49.790Z,28.70
2023-01-30T05:27:49.781Z,28.60
2023-01-30T05:28:49.776Z,28.80
2023-01-30T05:29:49.764Z,28.50
2023-01-30T05:30:49.773Z,24.60
2023-01-30T05:31:49.826Z,25.10
2023-01-30T05:32:49.736Z,25.40
2023-01-30T05:33:49.729Z,26.20
2023-01-30T05:34:49.718Z,27.10
2023-01-30T05:35:49.706Z,27.20
2023-01-30T05:36:49.721Z,26.50
2023-01-30T05:37:49.692Z,26.80
2023-01-30T05:38:49.680Z,27.90
2023-01-30T05:39:49.674Z,28.10
2023-01-30T05:40:49.670Z,28.70
2023-01-30T05:41:49.651Z,28.20
2023-01-30T05:42:49.645Z,28.40
2023-01-30T05:43:49.637Z,28.20
2023-01-30T05:44:49.626Z,28.40
2023-01-30T05:45:49.630Z,27.60
2023-01-30T05:46:49.649Z,22.60
2023-01-30T05:47:49.602Z,23.40
2023-01-30T05:48:49.593Z,23.60
2023-01-30T05:49:49.582Z,23.80
2023-01-30T05:50:49.572Z,23.60
2023-01-30T05:51:51.506Z,22.70
2023-01-30T05:52:49.571Z,22.60
2023-01-30T05:53:49.562Z,25.20
2023-01-30T05:54:49.585Z,25.70
2023-01-30T05:55:49.527Z,25.30
2023-01-30T05:56:49.520Z,26.40
2023-01-30T05:57:49.512Z,25.20
2023-01-30T05:58:49.502Z,26.10
2023-01-30T05:59:49.502Z,25.30
2023-01-30T06:00:49.501Z,26.20
2023-01-30T06:01:49.476Z,25.70
2023-01-30T06:02:49.520Z,22.00
2023-01-30T06:03:49.518Z,22.50
2023-01-30T06:04:49.457Z,23.20
2023-01-30T06:05:49.437Z,23.00
2023-01-30T06:06:49.431Z,22.00
2023-01-30T06:07:49.434Z,23.00
2023-01-30T06:08:49.432Z,22.40
2023-01-30T06:09:49.807Z,23.80
2023-01-30T06:10:49.392Z,25.20
2023-01-30T06:11:49.387Z,25.80
2023-01-30T06:12:49.377Z,25.60
2023-01-30T06:13:49.370Z,26.40
2023-01-30T06:14:49.414Z,26.20
2023-01-30T06:15:49.392Z,25.60
2023-01-30T06:16:49.389Z,26.20
2023-01-30T06:17:49.338Z,26.10
2023-01-30T06:18:49.321Z,22.70
2023-01-30T06:19:49.315Z,23.50
2023-01-30T06:20:49.313Z,24.20
2023-01-30T06:21:49.302Z,24.00
2023-01-30T06:22:49.291Z,23.50
2023-01-30T06:23:49.288Z,22.90
2023-01-30T06:24:49.288Z,25.20
2023-01-30T06:25:49.263Z,26.60
2023-01-30T06:26:49.321Z,26.30
2023-01-30T06:27:49.243Z,26.20
2023-01-30T06:28:49.239Z,26.40
2023-01-30T06:29:49.223Z,26.70
2023-01-30T06:30:49.333Z,26.70
2023-01-30T06:31:49.209Z,26.70
2023-01-30T06:32:49.198Z,25.90
2023-01-30T06:33:49.191Z,26.70
2023-01-30T06:34:49.180Z,26.90
2023-01-30T06:35:49.180Z,26.80
2023-01-30T06:36:49.166Z,26.00
2023-01-30T06:37:49.151Z,23.50
2023-01-30T06:38:49.143Z,23.00
2023-01-30T06:39:49.134Z,25.60
2023-01-30T06:40:49.152Z,25.70
2023-01-30T06:41:49.115Z,26.80
2023-01-30T06:42:49.123Z,27.00
2023-01-30T06:43:49.111Z,27.30
2023-01-30T06:44:49.091Z,27.10
2023-01-30T06:45:49.170Z,27.30
2023-01-30T06:46:49.083Z,27.30
2023-01-30T06:47:49.068Z,27.70
2023-01-30T06:48:49.070Z,27.50
2023-01-30T06:49:49.052Z,23.50
2023-01-30T06:50:49.056Z,23.50
2023-01-30T06:51:49.036Z,24.70
2023-01-30T06:52:49.030Z,25.20
2023-01-30T06:53:50.251Z,26.10
2023-01-30T06:54:49.007Z,26.80
2023-01-30T06:55:49.006Z,26.10
2023-01-30T06:56:49.006Z,25.70
2023-01-30T06:57:48.977Z,26.10
2023-01-30T06:58:48.991Z,26.20
2023-01-30T06:59:48.970Z,26.10
2023-01-30T07:00:48.975Z,24.60
2023-01-30T07:01:49.061Z,24.40
2023-01-30T07:02:48.954Z,25.10
2023-01-30T07:03:48.975Z,25.10
2023-01-30T07:04:48.921Z,24.70
2023-01-30T07:05:48.907Z,24.40
2023-01-30T07:06:48.900Z,24.60
2023-01-30T07:07:48.897Z,20.40
2023-01-30T07:08:48.880Z,20.70
2023-01-30T07:10:02.158Z,21.90
2023-01-30T07:10:48.864Z,22.60
2023-01-30T07:11:48.852Z,23.70
2023-01-30T07:12:48.869Z,24.30
2023-01-30T07:13:48.844Z,24.80
2023-01-30T07:14:48.980Z,24.90
2023-01-30T07:15:48.824Z,24.40
2023-01-30T07:16:48.866Z,23.50
2023-01-30T07:17:48.807Z,24.50
2023-01-30T07:18:48.800Z,24.70
2023-01-30T07:19:48.789Z,24.60
2023-01-30T07:20:48.802Z,23.40
2023-01-30T07:21:48.793Z,24.40
2023-01-30T07:22:48.760Z,24.30
2023-01-30T07:23:48.753Z,23.70
2023-01-30T07:24:48.743Z,21.60
2023-01-30T07:25:48.748Z,22.30
2023-01-30T07:26:48.784Z,23.80
2023-01-30T07:27:48.716Z,25.30
2023-01-30T07:28:48.740Z,23.90
2023-01-30T07:29:48.697Z,24.60
2023-01-30T07:30:48.724Z,24.40
2023-01-30T07:31:48.711Z,23.50
2023-01-30T07:32:48.673Z,24.90
2023-01-30T07:33:48.665Z,24.70
2023-01-30T07:34:48.660Z,24.30
2023-01-30T07:35:48.655Z,24.40
2023-01-30T07:36:48.641Z,24.50
2023-01-30T07:37:48.630Z,23.80
2023-01-30T07:38:48.621Z,23.50
2023-01-30T07:39:48.628Z,23.30
2023-01-30T07:40:48.606Z,24.40
2023-01-30T07:41:48.598Z,22.50
2023-01-30T07:42:48.594Z,23.30
2023-01-30T07:43:48.577Z,23.80
2023-01-30T07:44:48.592Z,23.60
2023-01-30T07:45:48.600Z,23.50
2023-01-30T07:46:48.610Z,23.70
2023-01-30T07:47:48.541Z,23.40
2023-01-30T07:48:48.553Z,23.10
2023-01-30T07:49:48.527Z,23.70
2023-01-30T07:50:48.528Z,23.40
2023-01-30T07:51:48.538Z,23.30
2023-01-30T07:52:48.518Z,23.30
2023-01-30T07:53:48.493Z,22.70
2023-01-30T07:54:48.515Z,22.60
2023-01-30T07:55:48.475Z,23.10
2023-01-30T07:56:48.473Z,22.60
2023-01-30T07:57:48.470Z,22.60
2023-01-30T07:58:48.454Z,22.20
2023-01-30T07:59:48.448Z,22.80
2023-01-30T08:00:48.571Z,22.70
2023-01-30T08:01:48.424Z,23.40
2023-01-30T08:02:48.417Z,22.90
2023-01-30T08:03:48.407Z,21.90
2023-01-30T08:04:48.509Z,22.60
2023-01-30T08:05:48.417Z,21.20
2023-01-30T08:06:48.399Z,19.90
2023-01-30T08:07:48.377Z,20.10
2023-01-30T08:08:48.367Z,21.30
2023-01-30T08:09:48.354Z,22.10
2023-01-30T08:10:48.348Z,21.80
2023-01-30T08:11:48.357Z,22.40
2023-01-30T08:12:48.381Z,22.40
2023-01-30T08:13:48.322Z,22.10
2023-01-30T08:14:48.513Z,22.60
2023-01-30T08:15:48.304Z,23.40
2023-01-30T08:16:48.347Z,23.80
2023-01-30T08:17:48.287Z,22.40
2023-01-30T08:18:48.281Z,22.40
2023-01-30T08:19:48.285Z,22.50
2023-01-30T08:20:48.266Z,23.60
2023-01-30T08:21:48.254Z,22.60
2023-01-30T08:22:48.275Z,22.60
2023-01-30T08:23:48.245Z,23.50
2023-01-30T08:24:48.247Z,22.10
2023-01-30T08:25:48.227Z,20.20
2023-01-30T08:26:48.287Z,20.40
2023-01-30T08:27:48.206Z,22.40
2023-01-30T08:28:48.198Z,23.60
2023-01-30T08:29:48.197Z,23.50
2023-01-30T08:30:48.235Z,24.20
2023-01-30T08:31:48.229Z,24.50
2023-01-30T08:32:48.336Z,24.80
2023-01-30T08:33:48.161Z,24.60
2023-01-30T08:34:48.154Z,24.80
2023-01-30T08:35:48.135Z,25.60
2023-01-30T08:36:48.134Z,26.00
2023-01-30T08:37:48.122Z,25.60
2023-01-30T08:38:48.130Z,25.90
2023-01-30T08:39:48.106Z,25.50
2023-01-30T08:40:48.095Z,25.40
2023-01-30T08:41:48.092Z,26.00
2023-01-30T08:42:48.200Z,25.10
2023-01-30T08:43:48.069Z,24.80
2023-01-30T08:44:48.080Z,25.90
2023-01-30T08:45:48.054Z,26.00
2023-01-30T08:46:48.120Z,25.00
2023-01-30T08:47:48.038Z,25.30
2023-01-30T08:48:50.165Z,26.00
2023-01-30T08:49:48.027Z,26.00
2023-01-30T08:50:48.047Z,26.00
2023-01-30T08:51:48.011Z,25.40
2023-01-30T08:52:48.100Z,25.90
2023-01-30T08:53:47.993Z,24.80
2023-01-30T08:54:47.990Z,25.00
2023-01-30T08:55:47.969Z,24.60
2023-01-30T08:56:47.981Z,24.40
2023-01-30T08:57:47.965Z,24.50
2023-01-30T08:58:47.971Z,23.10
2023-01-30T08:59:47.941Z,21.90
2023-01-30T09:00:48.863Z,23.30
2023-01-30T09:01:47.922Z,22.80
2023-01-30T09:02:48.137Z,22.90
2023-01-30T09:03:47.904Z,22.30
2023-01-30T09:04:47.912Z,22.80
2023-01-30T09:05:47.893Z,21.20
2023-01-30T09:06:47.882Z,21.20
2023-01-30T09:07:47.877Z,21.50
2023-01-30T09:08:47.869Z,21.20
2023-01-30T09:09:48.154Z,21.40
2023-01-30T09:10:47.846Z,20.30
2023-01-30T09:11:47.838Z,19.90
2023-01-30T09:12:47.832Z,20.20
2023-01-30T09:13:49.585Z,20.40
2023-01-30T09:14:47.817Z,19.60
2023-01-30T09:15:47.808Z,18.60
2023-01-30T09:16:47.865Z,18.50
2023-01-30T09:17:47.792Z,19.40
2023-01-30T09:18:47.782Z,17.90
2023-01-30T09:19:47.774Z,18.30
2023-01-30T09:20:47.806Z,17.70
2023-01-30T09:21:47.757Z,17.60
2023-01-30T09:22:47.756Z,17.60
2023-01-30T09:23:47.738Z,17.60
2023-01-30T09:24:47.735Z,15.70
2023-01-30T09:25:47.722Z,16.40
2023-01-30T09:26:47.813Z,16.90
2023-01-30T09:27:47.704Z,16.00
2023-01-30T09:28:47.706Z,15.30
2023-01-30T09:29:47.688Z,14.90
2023-01-30T09:30:47.819Z,14.50
2023-01-30T09:31:47.724Z,14.40
2023-01-30T09:32:47.683Z,13.60
2023-01-30T09:33:47.655Z,12.80
2023-01-30T09:34:47.651Z,12.80
2023-01-30T09:35:47.639Z,12.30
2023-01-30T09:36:47.668Z,12.80
2023-01-30T09:37:47.621Z,11.90
2023-01-30T09:38:47.624Z,11.70
2023-01-30T09:39:47.605Z,10.70
2023-01-30T09:40:47.601Z,10.40
2023-01-30T09:41:47.589Z,10.30
2023-01-30T09:42:47.582Z,10.40
2023-01-30T09:43:47.572Z,11.00
2023-01-30T09:44:47.566Z,10.20
2023-01-30T09:45:47.620Z,10.60
2023-01-30T09:46:47.564Z,9.80
2023-01-30T09:47:47.931Z,9.70
2023-01-30T09:48:47.533Z,9.80
2023-01-30T09:49:47.522Z,8.80
2023-01-30T09:50:47.516Z,8.30
2023-01-30T09:51:47.512Z,9.00
2023-01-30T09:52:47.556Z,8.30
2023-01-30T09:53:47.490Z,8.20
2023-01-30T09:54:47.482Z,8.00
2023-01-30T09:55:47.470Z,8.00
2023-01-30T09:56:47.465Z,8.00
2023-01-30T09:57:47.455Z,7.90
2023-01-30T09:58:47.447Z,7.50
2023-01-30T09:59:47.442Z,6.70
2023-01-30T10:00:47.431Z,6.90
2023-01-30T10:01:47.435Z,6.70
2023-01-30T10:02:47.415Z,6.80
2023-01-30T10:03:47.465Z,6.50
2023-01-30T10:05:00.429Z,6.50
2023-01-30T10:05:47.398Z,6.20
2023-01-30T10:06:47.380Z,6.30
2023-01-30T10:07:47.387Z,5.60
2023-01-30T10:08:47.388Z,5.60
2023-01-30T10:09:47.362Z,5.40
2023-01-30T10:10:48.332Z,5.60
2023-01-30T10:11:47.336Z,5.50
2023-01-30T10:12:47.344Z,5.70
2023-01-30T10:13:47.321Z,5.10
2023-01-30T10:14:47.321Z,5.40
2023-01-30T10:15:47.316Z,4.90
2023-01-30T10:16:47.303Z,5.10
2023-01-30T10:17:47.290Z,4.80
2023-01-30T10:18:48.543Z,5.00
2023-01-30T10:19:47.276Z,4.90
2023-01-30T10:20:47.264Z,4.80
2023-01-30T10:21:47.253Z,4.80
2023-01-30T10:22:47.253Z,4.40
2023-01-30T10:23:47.245Z,4.40
2023-01-30T10:24:47.249Z,4.50
2023-01-30T10:25:47.218Z,4.50
2023-01-30T10:26:47.291Z,4.90
2023-01-30T10:27:47.214Z,4.80
2023-01-30T10:28:52.491Z,4.50
2023-01-30T10:29:47.187Z,4.80
2023-01-30T10:30:47.369Z,4.70
2023-01-30T10:31:47.299Z,4.50
2023-01-30T10:32:47.171Z,4.40
2023-01-30T10:33:47.153Z,4.20
2023-01-30T10:34:47.146Z,4.40
2023-01-30T10:35:47.134Z,4.90
2023-01-30T10:36:47.128Z,4.40
2023-01-30T10:37:47.121Z,4.00
2023-01-30T10:38:47.111Z,4.40
2023-01-30T10:39:54.886Z,4.20
2023-01-30T10:40:47.119Z,4.20
2023-01-30T10:41:47.089Z,3.90
2023-01-30T10:42:47.079Z,4.20
2023-01-30T10:43:47.068Z,4.50
2023-01-30T10:44:47.069Z,4.00
2023-01-30T10:45:47.065Z,4.60
2023-01-30T10:46:47.082Z,4.90
2023-01-30T10:47:48.167Z,4.30
2023-01-30T10:48:47.043Z,4.40
2023-01-30T10:49:47.021Z,3.80
2023-01-30T10:50:47.011Z,4.00
2023-01-30T10:51:47.023Z,4.20
2023-01-30T10:52:46.991Z,4.50
2023-01-30T10:53:46.989Z,4.00
2023-01-30T10:54:46.977Z,4.30
2023-01-30T10:55:46.974Z,4.20
2023-01-30T10:56:46.976Z,4.40
2023-01-30T10:57:46.951Z,4.10
2023-01-30T10:58:46.950Z,4.10
2023-01-30T10:59:46.931Z,4.30
2023-01-30T11:00:46.927Z,4.20
2023-01-30T11:01:46.917Z,4.00
2023-01-30T11:02:46.932Z,3.90
2023-01-30T11:03:46.916Z,4.20
2023-01-30T11:04:46.889Z,4.50
2023-01-30T11:05:46.916Z,4.40
2023-01-30T11:06:46.874Z,4.50
2023-01-30T11:07:46.870Z,3.90
2023-01-30T11:08:46.878Z,4.30
2023-01-30T11:09:46.849Z,4.30
2023-01-30T11:10:46.849Z,4.50
2023-01-30T11:11:46.846Z,4.20
2023-01-30T11:12:46.942Z,4.20
2023-01-30T11:13:46.845Z,4.50
2023-01-30T11:14:46.804Z,3.80
2023-01-30T11:15:46.858Z,4.20
2023-01-30T11:16:46.795Z,4.10
2023-01-30T11:17:46.782Z,4.50
2023-01-30T11:19:47.112Z,3.90
2023-01-30T11:20:48.075Z,4.00
2023-01-30T11:21:46.745Z,4.10
2023-01-30T11:22:46.735Z,3.90
2023-01-30T11:23:46.735Z,4.10
2023-01-30T11:24:46.719Z,4.10
2023-01-30T11:25:46.715Z,4.20
2023-01-30T11:26:48.289Z,4.20
2023-01-30T11:27:46.694Z,3.90
2023-01-30T11:28:49.230Z,4.20
2023-01-30T11:29:46.677Z,3.90
2023-01-30T11:30:46.679Z,4.40
2023-01-30T11:31:46.761Z,4.00
2023-01-30T11:32:46.655Z,4.10
2023-01-30T11:33:46.643Z,4.10
2023-01-30T11:34:46.643Z,4.20
2023-01-30T11:35:46.628Z,4.10
2023-01-30T11:36:46.616Z,4.10
2023-01-30T11:37:46.615Z,4.10
2023-01-30T11:38:46.599Z,4.20
2023-01-30T11:39:46.593Z,4.20
2023-01-30T11:40:46.587Z,4.30
2023-01-30T11:41:46.576Z,3.90
2023-01-30T11:42:46.568Z,4.00
2023-01-30T11:43:46.558Z,4.30
2023-01-30T11:44:46.578Z,3.80
2023-01-30T11:45:46.576Z,3.90
2023-01-30T11:46:46.529Z,3.70
2023-01-30T11:47:54.232Z,4.10
2023-01-30T11:49:11.181Z,3.80
2023-01-30T11:49:54.203Z,3.90
2023-01-30T11:50:49.846Z,4.10
2023-01-30T11:51:46.497Z,4.00
2023-01-30T11:52:46.485Z,4.40
2023-01-30T11:53:46.469Z,4.20
2023-01-30T11:54:46.465Z,4.00
2023-01-30T11:55:56.642Z,4.40
2023-01-30T11:56:46.463Z,4.00
2023-01-30T11:57:46.438Z,4.00
2023-01-30T11:58:46.430Z,3.80
2023-01-30T11:59:46.424Z,3.80
2023-01-30T12:00:46.435Z,3.70
2023-01-30T12:01:46.417Z,4.10
2023-01-30T12:02:46.478Z,3.90
2023-01-30T12:03:46.392Z,4.20
2023-01-30T12:04:46.382Z,3.90
2023-01-30T12:05:46.389Z,3.80
2023-01-30T12:06:46.370Z,3.80
2023-01-30T12:07:46.365Z,4.10
2023-01-30T12:08:46.349Z,4.10
2023-01-30T12:09:46.341Z,4.00
2023-01-30T12:10:46.333Z,3.60
2023-01-30T12:11:46.323Z,3.80
2023-01-30T12:12:46.311Z,4.00
2023-01-30T12:13:46.302Z,3.40
2023-01-30T12:14:46.293Z,3.40
2023-01-30T12:15:46.286Z,3.50
2023-01-30T12:16:46.356Z,3.80
2023-01-30T12:17:46.276Z,3.80
2023-01-30T12:18:46.265Z,3.30
2023-01-30T12:19:46.255Z,3.50
2023-01-30T12:20:46.250Z,3.30
2023-01-30T12:21:46.236Z,2.90
2023-01-30T12:22:46.230Z,3.10
2023-01-30T12:23:46.227Z,3.60
2023-01-30T12:24:46.597Z,3.50
2023-01-30T12:25:46.220Z,4.00
2023-01-30T12:26:46.218Z,3.80
2023-01-30T12:27:46.191Z,3.30
2023-01-30T12:28:46.180Z,3.80
2023-01-30T12:29:46.184Z,3.60
2023-01-30T12:30:46.180Z,3.40
2023-01-30T12:31:46.167Z,3.40
2023-01-30T12:32:46.169Z,3.80
2023-01-30T12:33:46.149Z,3.40
2023-01-30T12:34:49.389Z,3.40
2023-01-30T12:35:46.121Z,3.50
2023-01-30T12:36:46.116Z,3.60
2023-01-30T12:37:46.108Z,3.50
2023-01-30T12:38:46.094Z,3.30
2023-01-30T12:39:46.699Z,3.40
2023-01-30T12:40:47.179Z,3.20
2023-01-30T12:41:46.073Z,3.90
2023-01-30T12:42:46.060Z,3.20
2023-01-30T12:43:46.051Z,3.10
2023-01-30T12:44:46.042Z,3.30
2023-01-30T12:45:46.035Z,3.70
2023-01-30T12:46:46.026Z,3.60
2023-01-30T12:47:46.020Z,3.50
2023-01-30T12:48:48.562Z,3.50
2023-01-30T12:49:46.003Z,3.30
2023-01-30T12:50:46.000Z,3.30
2023-01-30T12:51:46.038Z,3.60
2023-01-30T12:52:46.033Z,3.40
2023-01-30T12:53:46.021Z,3.20
2023-01-30T12:54:45.960Z,3.10
2023-01-30T12:55:45.995Z,3.50
2023-01-30T12:56:46.922Z,3.10
2023-01-30T12:57:45.937Z,3.40
2023-01-30T12:58:45.953Z,3.60
2023-01-30T12:59:45.921Z,3.70
2023-01-30T13:00:45.918Z,3.60